Time;durP1;ratioP1;P1;durP2;ratioP2;P2;SDS_P1;SDS_P2;PMS_P1;PMS_P2;Temp;Humidity;BMP_temperature;BMP_pressure;BME280_temperature;BME280_humidity;BME280_pressure;Samples;Min_cycle;Max_cycle;Signal;HPM_P1;HPM_P2
2023/12/23 00:00:48;;;;;;;4.00;1.57;;;1.60;99.90;;;;;;9809485;30;20199;-81
2023/12/23 00:06:10;;;;;;;5.10;1.87;;;1.60;99.90;;;;;;9786291;30;20237;-79
2023/12/23 00:11:32;;;;;;;2.93;1.40;;;1.60;99.90;;;;;;9797017;30;20261;-78
2023/12/23 00:16:53;;;;;;;7.07;1.60;;;1.50;99.90;;;;;;9821749;30;20214;-79
2023/12/23 00:22:14;;;;;;;2.70;1.40;;;1.50;99.90;;;;;;9820472;30;20216;-78
2023/12/23 00:27:36;;;;;;;6.30;1.67;;;1.50;99.90;;;;;;9809025;30;20234;-78
2023/12/23 00:32:57;;;;;;;3.93;1.50;;;1.50;99.90;;;;;;9808650;30;20216;-79
2023/12/23 00:38:18;;;;;;;3.37;1.13;;;1.50;98.60;;;;;;9808754;30;20210;-79
2023/12/23 00:43:40;;;;;;;4.13;1.10;;;1.50;48.40;;;;;;9808390;30;20259;-78
2023/12/23 00:49:01;;;;;;;1.23;0.83;;;1.50;11.40;;;;;;9807843;30;20247;-80
2023/12/23 00:54:23;;;;;;;2.27;1.20;;;1.50;1.00;;;;;;9820106;30;20221;-77
2023/12/23 00:59:45;;;;;;;7.90;1.70;;;1.60;1.00;;;;;;9820581;30;20208;-78
2023/12/23 01:05:07;;;;;;;6.50;2.43;;;1.50;1.00;;;;;;9807814;30;20288;-80
2023/12/23 01:10:28;;;;;;;3.17;1.20;;;1.30;1.00;;;;;;9807174;30;20741;-79
2023/12/23 01:15:49;;;;;;;7.60;1.40;;;1.40;1.00;;;;;;9807397;30;20214;-78
2023/12/23 01:21:10;;;;;;;7.83;1.30;;;1.40;1.00;;;;;;9819239;30;20223;-78
2023/12/23 01:26:32;;;;;;;6.57;1.40;;;1.40;1.00;;;;;;9794867;30;20458;-77
2023/12/23 01:31:53;;;;;;;2.37;0.97;;;1.40;1.00;;;;;;9806862;30;20476;-80
2023/12/23 01:37:15;;;;;;;3.50;1.10;;;1.40;1.00;;;;;;9806789;30;20536;-79
2023/12/23 01:42:37;;;;;;;6.67;0.90;;;1.40;1.00;;;;;;9806730;30;20245;-79
2023/12/23 01:48:00;;;;;;;4.10;0.90;;;1.50;1.00;;;;;;9817357;30;20253;-79
2023/12/23 01:53:22;;;;;;;6.63;0.80;;;1.50;1.00;;;;;;9805754;30;20288;-80
2023/12/23 01:58:43;;;;;;;6.00;1.10;;;1.50;86.50;;;;;;9818717;30;20236;-83
2023/12/23 02:04:04;;;;;;;4.23;1.20;;;1.40;99.90;;;;;;9805892;30;20214;-80
2023/12/23 02:09:26;;;;;;;3.90;0.87;;;1.30;99.90;;;;;;9817164;30;20318;-80
2023/12/23 02:15:01;;;;;;;4.47;0.90;;;1.30;99.90;;;;;;9794798;30;20216;-78
2023/12/23 02:20:22;;;;;;;4.87;1.30;;;1.30;99.90;;;;;;9792595;30;20280;-78
2023/12/23 02:25:53;;;;;;;7.37;1.47;;;1.20;99.90;;;;;;9793294;30;20211;-81
2023/12/23 02:31:15;;;;;;;7.03;1.30;;;1.30;99.90;;;;;;9819333;30;20274;-82
2023/12/23 02:36:38;;;;;;;2.70;1.10;;;1.40;99.90;;;;;;9805149;30;20197;-78
2023/12/23 02:41:59;;;;;;;3.47;1.10;;;1.40;4.90;;;;;;9769286;30;20237;-79
2023/12/23 02:47:20;;;;;;;9.57;1.20;;;1.40;1.00;;;;;;9768325;30;20479;-78
2023/12/23 02:52:41;;;;;;;7.60;1.60;;;1.40;1.00;;;;;;9780579;30;20213;-79
2023/12/23 02:58:03;;;;;;;3.63;1.37;;;1.40;1.00;;;;;;9819209;30;20239;-81
2023/12/23 03:03:24;;;;;;;6.40;1.10;;;1.20;1.00;;;;;;9812098;30;20277;-77
2023/12/23 03:08:45;;;;;;;4.20;1.20;;;1.30;1.00;;;;;;9799302;30;20288;-78
2023/12/23 03:14:06;;;;;;;10.93;1.60;;;1.30;1.00;;;;;;9823971;30;20213;-78
2023/12/23 03:19:28;;;;;;;7.57;1.13;;;1.30;1.00;;;;;;9823997;30;20217;-80
2023/12/23 03:24:49;;;;;;;2.27;0.87;;;1.30;1.00;;;;;;9811307;30;20209;-78
2023/12/23 03:30:11;;;;;;;4.80;1.27;;;1.30;1.00;;;;;;9810514;30;20229;-79
2023/12/23 03:35:32;;;;;;;4.80;1.37;;;1.30;1.00;;;;;;9798875;30;20215;-79
2023/12/23 03:40:54;;;;;;;6.40;0.87;;;1.30;1.00;;;;;;9810799;30;20243;-78
2023/12/23 03:46:19;;;;;;;8.00;1.07;;;1.20;1.00;;;;;;9823110;30;20453;-79
2023/12/23 03:51:40;;;;;;;4.40;1.33;;;1.30;1.00;;;;;;9822685;30;20247;-78
2023/12/23 03:57:01;;;;;;;5.50;1.30;;;1.30;1.00;;;;;;9808868;30;20432;-78
2023/12/23 04:02:23;;;;;;;5.00;0.90;;;1.20;1.00;;;;;;9810429;30;20284;-78
2023/12/23 04:07:46;;;;;;;5.63;1.00;;;1.20;1.00;;;;;;9809084;30;20526;-78
2023/12/23 04:13:08;;;;;;;7.27;1.00;;;1.20;1.00;;;;;;9809387;30;20270;-77
2023/12/23 04:18:30;;;;;;;7.50;1.40;;;1.20;1.00;;;;;;9809656;30;20384;-79
2023/12/23 04:23:51;;;;;;;8.40;1.13;;;1.20;1.00;;;;;;9821892;30;20469;-80
2023/12/23 04:29:12;;;;;;;3.23;0.80;;;1.20;1.00;;;;;;9808624;30;20244;-78
2023/12/23 04:34:34;;;;;;;5.17;1.07;;;1.00;1.00;;;;;;9820361;30;20211;-79
2023/12/23 04:39:55;;;;;;;8.17;1.30;;;0.90;1.00;;;;;;9808962;30;20297;-79
2023/12/23 04:45:16;;;;;;;11.40;2.43;;;0.90;1.00;;;;;;9796601;30;20209;-77
2023/12/23 04:50:38;;;;;;;5.57;1.37;;;0.90;1.00;;;;;;9808172;30;20357;-84
2023/12/23 04:56:00;;;;;;;9.10;1.43;;;0.90;1.00;;;;;;9820224;30;20209;-80
2023/12/23 05:01:21;;;;;;;9.50;1.50;;;1.10;1.00;;;;;;9820649;30;20427;-85
2023/12/23 05:06:42;;;;;;;8.87;1.77;;;1.10;1.00;;;;;;9821027;30;20361;-79
2023/12/23 05:12:04;;;;;;;5.90;1.33;;;1.10;1.00;;;;;;9807518;30;20315;-79
2023/12/23 05:17:25;;;;;;;5.67;1.50;;;1.30;1.00;;;;;;9807537;30;20217;-83
2023/12/23 05:22:46;;;;;;;8.27;1.37;;;1.30;1.00;;;;;;9818778;30;20210;-80
2023/12/23 05:28:08;;;;;;;5.67;1.57;;;1.40;1.00;;;;;;9802843;30;20244;-82
2023/12/23 05:33:29;;;;;;;4.43;1.20;;;1.30;1.00;;;;;;9819315;30;20388;-80
2023/12/23 05:38:50;;;;;;;9.40;1.80;;;1.40;1.00;;;;;;9820256;30;20206;-79
2023/12/23 05:44:11;;;;;;;5.77;1.30;;;1.30;1.00;;;;;;9806815;30;20213;-79
2023/12/23 05:49:33;;;;;;;11.30;1.43;;;1.40;1.00;;;;;;9818640;30;20277;-80
2023/12/23 05:54:54;;;;;;;8.33;1.80;;;1.30;1.00;;;;;;9806715;30;20203;-82
2023/12/23 06:00:19;;;;;;;8.40;1.33;;;1.30;1.00;;;;;;9820236;30;20213;-81
2023/12/23 06:05:40;;;;;;;8.07;1.43;;;1.30;1.00;;;;;;9805774;30;20447;-81
2023/12/23 06:11:03;;;;;;;5.80;1.57;;;1.20;1.00;;;;;;9805937;30;20244;-80
2023/12/23 06:16:25;;;;;;;8.60;1.20;;;1.20;1.00;;;;;;9792508;30;20205;-80
2023/12/23 06:21:46;;;;;;;8.03;0.70;;;1.20;1.00;;;;;;9757364;30;20280;-80
2023/12/23 06:27:08;;;;;;;5.93;1.27;;;1.30;1.00;;;;;;9785462;30;20217;-83
2023/12/23 06:32:29;;;;;;;9.53;1.20;;;1.30;1.00;;;;;;9805318;30;20304;-80
2023/12/23 06:37:50;;;;;;;5.63;1.10;;;1.30;1.00;;;;;;9793148;30;20209;-80
2023/12/23 06:43:12;;;;;;;5.77;1.13;;;1.30;1.00;;;;;;9792720;30;20699;-79
2023/12/23 06:48:33;;;;;;;4.50;1.40;;;1.30;1.00;;;;;;9804709;30;20245;-79
2023/12/23 06:53:55;;;;;;;8.63;2.07;;;1.30;1.00;;;;;;9805136;30;20363;-80
2023/12/23 06:59:16;;;;;;;11.57;3.73;;;1.20;1.00;;;;;;9817092;30;20206;-80
2023/12/23 07:04:37;;;;;;;4.77;1.50;;;1.20;1.00;;;;;;9792442;30;20223;-81
2023/12/23 07:09:59;;;;;;;8.10;1.80;;;1.20;1.00;;;;;;9792119;30;20253;-80
2023/12/23 07:15:21;;;;;;;2.90;1.30;;;1.20;1.00;;;;;;9786154;30;20219;-80
2023/12/23 07:20:42;;;;;;;4.20;1.47;;;1.20;1.00;;;;;;9780773;30;20220;-80
2023/12/23 07:26:05;;;;;;;5.67;1.77;;;1.20;1.00;;;;;;9787568;30;20531;-80
2023/12/23 07:31:26;;;;;;;4.73;1.97;;;1.10;1.00;;;;;;9816782;30;20233;-80
2023/12/23 07:36:47;;;;;;;8.17;1.57;;;1.10;1.00;;;;;;9803849;30;20203;-80
2023/12/23 07:42:08;;;;;;;4.00;1.47;;;1.00;1.00;;;;;;9816712;30;20653;-79
2023/12/23 07:47:30;;;;;;;15.33;3.23;;;1.00;1.00;;;;;;9823028;30;20264;-80
2023/12/23 07:52:51;;;;;;;9.87;2.70;;;1.00;1.00;;;;;;9822784;30;20292;-82
2023/12/23 07:58:12;;;;;;;9.53;2.20;;;1.00;1.00;;;;;;9822102;30;20217;-86
2023/12/23 08:03:34;;;;;;;15.37;6.30;;;1.00;1.00;;;;;;9798109;30;20234;-79
2023/12/23 08:08:55;;;;;;;15.57;5.63;;;1.00;1.00;;;;;;9821877;30;20301;-81
2023/12/23 08:14:16;;;;;;;15.17;4.73;;;1.00;1.00;;;;;;9799004;30;20245;-81
2023/12/23 08:19:38;;;;;;;13.53;4.60;;;1.10;1.00;;;;;;9785490;30;20287;-80
2023/12/23 08:24:59;;;;;;;9.13;3.70;;;1.20;1.00;;;;;;9774649;30;20551;-81
2023/12/23 08:30:20;;;;;;;9.47;3.97;;;1.30;1.00;;;;;;9785647;30;20253;-80
2023/12/23 08:35:43;;;;;;;18.47;6.57;;;1.50;1.00;;;;;;9804849;30;20214;-83
2023/12/23 08:41:04;;;;;;;17.97;5.20;;;1.60;1.00;;;;;;9821327;30;20210;-83
2023/12/23 08:46:26;;;;;;;17.03;4.03;;;1.70;1.00;;;;;;9819566;30;20446;-79
2023/12/23 08:51:47;;;;;;;27.00;10.40;;;1.90;1.00;;;;;;9793186;30;20295;-90
2023/12/23 08:57:09;;;;;;;10.97;3.27;;;1.70;1.00;;;;;;9819853;30;20247;-87
2023/12/23 09:02:30;;;;;;;15.37;5.00;;;1.70;1.00;;;;;;9786558;30;20593;-80
2023/12/23 09:07:51;;;;;;;16.73;5.63;;;1.70;1.00;;;;;;9780956;30;20199;-80
2023/12/23 09:13:13;;;;;;;17.37;6.13;;;1.70;1.00;;;;;;9801982;30;20225;-82
2023/12/23 09:18:34;;;;;;;21.67;5.30;;;1.70;1.00;;;;;;9801093;30;20268;-80
2023/12/23 09:23:55;;;;;;;17.63;3.77;;;2.00;1.00;;;;;;9810053;30;20221;-80
2023/12/23 09:29:16;;;;;;;16.67;4.83;;;2.10;1.00;;;;;;9787551;30;20241;-81
2023/12/23 09:34:38;;;;;;;12.40;3.23;;;2.10;1.00;;;;;;9814239;30;20210;-79
2023/12/23 09:40:01;;;;;;;7.43;2.40;;;2.00;1.00;;;;;;9803559;30;20309;-80
2023/12/23 09:45:24;;;;;;;11.87;3.07;;;2.10;1.00;;;;;;9794949;30;20395;-79
2023/12/23 09:50:45;;;;;;;5.70;2.20;;;1.90;1.00;;;;;;9802289;30;20426;-79
2023/12/23 09:56:08;;;;;;;11.03;2.67;;;1.80;1.00;;;;;;9788569;30;20215;-81
2023/12/23 10:01:29;;;;;;;10.90;3.53;;;2.00;1.00;;;;;;9752741;30;20637;-79
2023/12/23 10:06:52;;;;;;;11.00;2.53;;;2.10;1.00;;;;;;9790681;30;20314;-80
2023/12/23 10:12:13;;;;;;;15.27;4.43;;;2.30;1.00;;;;;;9794408;30;20259;-82
2023/12/23 10:17:36;;;;;;;9.07;2.17;;;2.40;1.00;;;;;;9779410;30;20227;-80
2023/12/23 10:22:57;;;;;;;7.60;2.70;;;2.50;1.00;;;;;;9797188;30;20295;-82
2023/12/23 10:28:21;;;;;;;13.23;4.43;;;2.60;1.00;;;;;;9788908;30;20207;-86
2023/12/23 10:33:51;;;;;;;13.17;3.10;;;2.40;1.00;;;;;;9815174;30;20256;-81
2023/12/23 10:39:25;;;;;;;6.83;2.47;;;2.30;1.00;;;;;;9801058;30;20238;-79
2023/12/23 10:44:48;;;;;;;9.40;2.93;;;2.20;1.00;;;;;;9810747;30;20222;-80
2023/12/23 10:50:10;;;;;;;10.97;3.23;;;2.20;1.00;;;;;;9825343;30;20492;-79
2023/12/23 10:55:32;;;;;;;12.90;4.23;;;2.30;1.00;;;;;;9825790;30;20207;-80
2023/12/23 11:00:54;;;;;;;9.47;3.90;;;2.20;1.00;;;;;;9812213;30;20388;-80
2023/12/23 11:06:17;;;;;;;7.03;2.83;;;2.20;1.00;;;;;;9823262;30;20226;-80
2023/12/23 11:11:40;;;;;;;6.57;2.17;;;2.20;1.00;;;;;;9806929;30;20281;-81
2023/12/23 11:17:02;;;;;;;8.47;2.50;;;2.30;1.00;;;;;;9828684;30;20219;-82
2023/12/23 11:22:24;;;;;;;4.80;1.60;;;2.40;1.00;;;;;;9827347;30;20269;-77
2023/12/23 11:27:47;;;;;;;12.20;3.40;;;2.60;1.00;;;;;;9824576;30;20463;-79
2023/12/23 11:33:08;;;;;;;6.07;2.13;;;2.80;1.00;;;;;;9824135;30;20445;-77
2023/12/23 11:38:50;;;;;;;8.40;2.70;;;3.10;1.00;;;;;;9819445;30;20211;-79
2023/12/23 11:44:11;;;;;;;4.27;1.90;;;3.20;1.00;;;;;;9833901;30;20210;-78
2023/12/23 11:49:32;;;;;;;6.30;2.10;;;3.70;1.00;;;;;;9824898;30;20557;-78
2023/12/23 11:54:54;;;;;;;12.53;2.93;;;4.20;1.00;;;;;;9788616;30;20247;-85
2023/12/23 12:00:18;;;;;;;7.67;2.53;;;3.70;1.00;;;;;;9830896;30;20215;-78
2023/12/23 12:05:39;;;;;;;6.10;2.73;;;3.30;1.00;;;;;;9821156;30;20216;-81
2023/12/23 12:11:02;;;;;;;4.20;1.60;;;3.30;1.00;;;;;;9833284;30;20229;-84
2023/12/23 12:16:24;;;;;;;11.27;2.60;;;3.10;1.00;;;;;;9807490;30;20211;-78
2023/12/23 12:21:45;;;;;;;6.80;2.40;;;2.70;1.00;;;;;;9814390;30;20490;-78
2023/12/23 12:27:06;;;;;;;10.27;3.00;;;2.50;1.00;;;;;;9807956;30;20206;-82
2023/12/23 12:32:28;;;;;;;5.87;2.13;;;2.30;1.00;;;;;;9805426;30;20511;-79
2023/12/23 12:37:50;;;;;;;8.83;2.63;;;2.10;1.00;;;;;;9818166;30;20505;-79
2023/12/23 12:43:11;;;;;;;12.73;3.50;;;2.10;1.00;;;;;;9794106;30;20292;-79
2023/12/23 12:48:32;;;;;;;8.50;2.40;;;2.20;1.00;;;;;;9808578;30;20526;-88
2023/12/23 12:53:54;;;;;;;8.37;2.90;;;2.40;1.00;;;;;;9796617;30;20207;-86
2023/12/23 12:59:15;;;;;;;8.33;3.30;;;2.50;1.00;;;;;;9822136;30;20226;-86
2023/12/23 13:04:36;;;;;;;6.30;2.20;;;2.40;1.00;;;;;;9807230;30;20238;-82
2023/12/23 13:10:00;;;;;;;6.17;2.70;;;2.40;1.00;;;;;;9820467;30;20241;-87
2023/12/23 13:15:21;;;;;;;6.73;2.40;;;2.40;1.00;;;;;;9820535;30;20461;-85
2023/12/23 13:20:42;;;;;;;4.80;2.20;;;2.30;1.00;;;;;;9807373;30;20263;-82
2023/12/23 13:26:04;;;;;;;6.60;3.03;;;2.10;1.00;;;;;;9807640;30;20433;-84
2023/12/23 13:31:26;;;;;;;8.77;2.60;;;2.10;1.00;;;;;;9818909;30;20238;-84
2023/12/23 13:36:47;;;;;;;4.97;2.40;;;2.10;1.00;;;;;;9819725;30;20243;-80
2023/12/23 13:42:09;;;;;;;8.57;2.27;;;2.10;1.00;;;;;;9818716;30;20521;-82
2023/12/23 13:47:33;;;;;;;6.73;3.37;;;1.90;1.00;;;;;;9819837;30;20233;-83
2023/12/23 13:52:54;;;;;;;10.30;3.43;;;1.90;1.00;;;;;;9818484;30;20254;-79
2023/12/23 13:58:16;;;;;;;5.80;2.73;;;1.80;1.00;;;;;;9806173;30;20207;-79
2023/12/23 14:03:37;;;;;;;8.37;3.33;;;1.80;1.00;;;;;;9793170;30;20289;-81
2023/12/23 14:08:59;;;;;;;9.03;3.23;;;1.70;1.00;;;;;;9806396;30;20203;-79
2023/12/23 14:14:20;;;;;;;9.83;4.10;;;1.60;1.00;;;;;;9818266;30;20216;-81
2023/12/23 14:19:41;;;;;;;16.93;6.00;;;1.50;1.00;;;;;;9818330;30;20250;-81
2023/12/23 14:25:04;;;;;;;13.20;6.10;;;1.60;1.00;;;;;;9805988;30;20211;-86
2023/12/23 14:30:25;;;;;;;13.73;5.37;;;1.50;1.00;;;;;;9794235;30;20562;-85
2023/12/23 14:35:47;;;;;;;7.53;3.57;;;1.40;1.00;;;;;;9818663;30;20260;-80
2023/12/23 14:41:09;;;;;;;6.10;3.00;;;1.40;1.00;;;;;;9804943;30;20508;-80
2023/12/23 14:46:31;;;;;;;10.10;4.50;;;1.30;1.00;;;;;;9817516;30;20218;-86
2023/12/23 14:51:53;;;;;;;10.70;3.70;;;1.20;1.00;;;;;;9817649;30;20241;-79
2023/12/23 14:57:14;;;;;;;7.40;3.00;;;1.10;1.00;;;;;;9817276;30;20200;-83
2023/12/23 15:02:36;;;;;;;5.53;2.40;;;1.10;1.00;;;;;;9803993;30;20303;-79
2023/12/23 15:07:57;;;;;;;9.60;2.90;;;1.10;1.00;;;;;;9805196;30;20209;-85
2023/12/23 15:13:23;;;;;;;8.67;3.33;;;1.00;1.00;;;;;;9819401;30;20244;-87
2023/12/23 15:18:44;;;;;;;10.43;3.33;;;1.00;1.00;;;;;;9792728;30;20213;-79
2023/12/23 15:24:07;;;;;;;8.07;3.17;;;1.00;1.00;;;;;;9802987;30;20212;-81
2023/12/23 15:29:28;;;;;;;8.33;2.27;;;1.00;1.00;;;;;;9816522;30;20230;-79
2023/12/23 15:34:50;;;;;;;5.70;2.40;;;1.00;1.00;;;;;;9792752;30;20265;-86
2023/12/23 15:40:11;;;;;;;10.47;2.73;;;1.00;3.10;;;;;;9817104;30;20202;-79
2023/12/23 15:45:33;;;;;;;5.80;2.73;;;1.00;11.10;;;;;;9816403;30;20312;-80
2023/12/23 15:50:54;;;;;;;6.87;2.50;;;1.00;32.40;;;;;;9815462;30;20564;-78
2023/12/23 15:56:15;;;;;;;10.07;2.97;;;1.00;49.60;;;;;;9817148;30;20254;-87
2023/12/23 16:01:36;;;;;;;10.53;2.23;;;1.00;13.30;;;;;;9816531;30;20205;-79
2023/12/23 16:06:58;;;;;;;6.13;2.57;;;1.00;13.30;;;;;;9821558;30;20198;-78
2023/12/23 16:12:19;;;;;;;6.73;3.40;;;0.90;16.90;;;;;;9809201;30;20252;-79
2023/12/23 16:17:41;;;;;;;4.20;2.30;;;0.90;70.20;;;;;;9775360;30;20213;-79
2023/12/23 16:23:02;;;;;;;6.27;2.53;;;0.80;81.50;;;;;;9808723;30;20225;-79
2023/12/23 16:28:24;;;;;;;7.47;2.93;;;0.80;99.90;;;;;;9809661;30;20555;-79
2023/12/23 16:33:46;;;;;;;5.37;2.83;;;0.70;99.90;;;;;;9809086;30;20549;-79
2023/12/23 16:39:07;;;;;;;8.50;2.30;;;0.70;99.90;;;;;;9821253;30;20219;-79
2023/12/23 16:44:28;;;;;;;5.87;2.40;;;0.70;99.90;;;;;;9809166;30;20209;-80
2023/12/23 16:49:50;;;;;;;8.87;2.37;;;0.60;99.90;;;;;;9820536;30;20246;-81
2023/12/23 16:55:11;;;;;;;5.57;1.97;;;0.60;99.90;;;;;;9806541;30;20222;-79
2023/12/23 17:00:32;;;;;;;8.70;2.60;;;0.50;99.90;;;;;;9821202;30;20202;-79
2023/12/23 17:05:53;;;;;;;4.23;2.00;;;0.40;99.90;;;;;;9803399;30;20214;-82
2023/12/23 17:11:15;;;;;;;7.23;2.23;;;0.40;99.90;;;;;;9793007;30;20238;-81
2023/12/23 17:16:36;;;;;;;4.23;2.13;;;0.40;99.90;;;;;;9771531;30;20229;-86
2023/12/23 17:21:58;;;;;;;6.37;2.20;;;0.40;99.90;;;;;;9812672;30;20505;-82
2023/12/23 17:27:19;;;;;;;3.13;1.80;;;0.40;99.90;;;;;;9807620;30;20216;-80
2023/12/23 17:32:40;;;;;;;6.13;1.60;;;0.30;99.90;;;;;;9820440;30;20241;-80
2023/12/23 17:38:02;;;;;;;5.07;1.87;;;0.40;99.90;;;;;;9794851;30;20213;-82
2023/12/23 17:43:23;;;;;;;7.47;2.10;;;0.40;99.90;;;;;;9819411;30;20201;-83
2023/12/23 17:48:44;;;;;;;2.87;1.80;;;0.30;99.90;;;;;;9794437;30;20257;-80
2023/12/23 17:54:05;;;;;;;5.93;2.33;;;0.30;99.90;;;;;;9818494;30;20543;-88
2023/12/23 17:59:27;;;;;;;7.43;2.20;;;0.20;99.90;;;;;;9794005;30;20444;-86
2023/12/23 18:04:49;;;;;;;5.03;2.20;;;0.20;99.90;;;;;;9818608;30;20206;-81
2023/12/23 18:10:10;;;;;;;11.90;4.03;;;0.10;99.90;;;;;;9805896;30;20279;-81
2023/12/23 18:15:31;;;;;;;18.53;5.23;;;0.10;99.90;;;;;;9806315;30;20533;-83
2023/12/23 18:20:53;;;;;;;15.47;4.60;;;0.10;99.90;;;;;;9815033;30;20225;-82
2023/12/23 18:26:14;;;;;;;8.53;2.97;;;0.10;99.90;;;;;;9804107;30;20298;-83
2023/12/23 18:31:36;;;;;;;6.17;2.47;;;0.10;99.90;;;;;;9781525;30;20242;-83
2023/12/23 18:36:57;;;;;;;5.33;3.30;;;0.10;99.90;;;;;;9803057;30;20236;-81
2023/12/23 18:42:18;;;;;;;8.03;3.23;;;0.00;99.90;;;;;;9805596;30;20214;-81
2023/12/23 18:47:39;;;;;;;8.80;3.20;;;0.00;99.90;;;;;;9805078;30;20424;-83
2023/12/23 18:53:01;;;;;;;6.63;3.07;;;0.00;99.90;;;;;;9805587;30;20233;-83
2023/12/23 18:58:22;;;;;;;10.63;3.70;;;0.00;99.90;;;;;;9816231;30;20213;-82
2023/12/23 19:03:43;;;;;;;5.03;1.97;;;0.00;99.90;;;;;;9793133;30;20291;-80
2023/12/23 19:09:05;;;;;;;7.17;2.57;;;0.00;99.90;;;;;;9805340;30;20198;-83
2023/12/23 19:14:26;;;;;;;7.40;2.60;;;0.00;99.90;;;;;;9818355;30;20245;-86
2023/12/23 19:19:47;;;;;;;5.93;2.53;;;0.00;99.90;;;;;;9804932;30;20403;-81
2023/12/23 19:25:09;;;;;;;7.53;2.43;;;0.00;99.90;;;;;;9816850;30;20234;-80
2023/12/23 19:30:30;;;;;;;6.17;2.10;;;-0.10;99.90;;;;;;9817712;30;20236;-80
2023/12/23 19:35:52;;;;;;;6.33;2.40;;;-0.10;99.90;;;;;;9817399;30;20228;-80
2023/12/23 19:41:13;;;;;;;5.57;2.13;;;0.00;99.90;;;;;;9810039;30;20217;-83
2023/12/23 19:46:35;;;;;;;6.40;2.77;;;0.20;1.00;;;;;;9824098;30;20531;-80
2023/12/23 19:51:57;;;;;;;4.77;1.90;;;0.10;1.00;;;;;;9824596;30;20226;-80
2023/12/23 19:57:18;;;;;;;8.03;2.43;;;0.20;1.00;;;;;;9822757;30;20205;-84
2023/12/23 20:02:39;;;;;;;11.40;3.33;;;0.10;1.00;;;;;;9822990;30;20562;-80
2023/12/23 20:08:01;;;;;;;7.60;3.13;;;0.10;1.00;;;;;;9812770;30;20393;-78
2023/12/23 20:13:22;;;;;;;7.90;2.83;;;0.10;1.00;;;;;;9811999;30;20617;-78
2023/12/23 20:18:44;;;;;;;6.17;2.50;;;0.20;1.00;;;;;;9822572;30;20206;-78
2023/12/23 20:24:07;;;;;;;5.03;2.57;;;0.30;1.00;;;;;;9809942;30;20217;-82
2023/12/23 20:29:28;;;;;;;8.93;2.47;;;0.30;1.00;;;;;;9808986;30;20214;-87
2023/12/23 20:34:50;;;;;;;5.30;2.30;;;0.30;1.00;;;;;;9792041;30;20248;-85
2023/12/23 20:40:12;;;;;;;4.57;2.20;;;0.30;1.00;;;;;;9819133;30;20500;-87
2023/12/23 20:45:33;;;;;;;7.37;2.63;;;0.30;1.00;;;;;;9806999;30;20274;-88
2023/12/23 20:50:54;;;;;;;7.17;2.60;;;0.40;1.00;;;;;;9804760;30;20259;-87
2023/12/23 20:56:24;;;;;;;12.37;2.83;;;0.40;1.00;;;;;;9807774;30;20531;-85
2023/12/23 21:01:47;;;;;;;4.93;2.40;;;0.40;1.00;;;;;;9820389;30;20284;-87
2023/12/23 21:07:08;;;;;;;7.53;2.90;;;0.50;1.00;;;;;;9807809;30;20209;-82
2023/12/23 21:12:29;;;;;;;8.10;2.70;;;0.50;1.00;;;;;;9815230;30;20541;-88
2023/12/23 21:17:51;;;;;;;6.63;2.10;;;0.40;1.00;;;;;;9818734;30;20209;-87
2023/12/23 21:23:12;;;;;;;6.47;2.70;;;0.40;1.00;;;;;;9807033;30;20237;-80
2023/12/23 21:28:34;;;;;;;6.33;2.37;;;0.40;1.00;;;;;;9818400;30;20219;-87
2023/12/23 21:33:55;;;;;;;5.67;2.30;;;0.30;1.00;;;;;;9759725;30;20254;-83
2023/12/23 21:39:17;;;;;;;4.80;1.87;;;0.20;1.00;;;;;;9783541;30;20539;-86
2023/12/23 21:44:38;;;;;;;4.80;2.40;;;0.20;1.00;;;;;;9771105;30;20229;-78
2023/12/23 21:49:59;;;;;;;8.50;2.57;;;0.10;1.00;;;;;;9809106;30;20246;-81
2023/12/23 21:55:21;;;;;;;8.37;2.60;;;0.20;1.00;;;;;;9804746;30;20214;-83
2023/12/23 22:00:42;;;;;;;5.07;2.97;;;0.10;1.00;;;;;;9816006;30;20518;-85
2023/12/23 22:06:04;;;;;;;3.93;2.20;;;0.10;1.00;;;;;;9803779;30;20213;-84
2023/12/23 22:11:25;;;;;;;6.07;2.50;;;0.10;1.00;;;;;;9805193;30;20550;-88
2023/12/23 22:16:46;;;;;;;6.97;2.23;;;0.10;1.00;;;;;;9805175;30;20518;-80
2023/12/23 22:22:08;;;;;;;4.13;1.70;;;0.00;1.00;;;;;;9792379;30;20213;-80
2023/12/23 22:27:29;;;;;;;5.27;2.20;;;0.00;1.00;;;;;;9803147;30;20485;-78
2023/12/23 22:32:51;;;;;;;6.07;2.27;;;0.00;1.00;;;;;;9802893;30;20420;-80
2023/12/23 22:38:12;;;;;;;5.03;2.53;;;0.00;1.00;;;;;;9804425;30;20255;-81
2023/12/23 22:43:34;;;;;;;6.90;2.00;;;0.20;1.00;;;;;;9816489;30;20200;-78
2023/12/23 22:48:55;;;;;;;4.97;1.70;;;0.00;1.00;;;;;;9752979;30;1190404;-79
2023/12/23 22:54:16;;;;;;;5.10;1.77;;;0.10;1.00;;;;;;9804723;30;20436;-80
2023/12/23 22:59:38;;;;;;;3.10;1.80;;;0.10;1.00;;;;;;9792779;30;20275;-79
2023/12/23 23:04:59;;;;;;;3.13;1.40;;;0.00;1.00;;;;;;9802723;30;20232;-82
2023/12/23 23:10:20;;;;;;;5.33;2.13;;;0.00;1.00;;;;;;9816926;30;20232;-80
2023/12/23 23:15:42;;;;;;;3.97;1.73;;;-0.10;1.00;;;;;;9790281;30;20225;-80
2023/12/23 23:21:04;;;;;;;5.60;1.53;;;0.00;1.00;;;;;;9788220;30;20223;-83
2023/12/23 23:26:25;;;;;;;4.20;1.70;;;-0.10;1.00;;;;;;9775469;30;20240;-81
2023/12/23 23:31:46;;;;;;;3.57;2.00;;;-0.10;1.00;;;;;;9770029;30;20320;-80
2023/12/23 23:37:09;;;;;;;2.97;1.77;;;-0.10;1.00;;;;;;9821209;30;20205;-81
2023/12/23 23:42:30;;;;;;;3.30;1.70;;;-0.20;1.00;;;;;;9824206;30;20214;-82
2023/12/23 23:47:52;;;;;;;1.77;1.07;;;-0.20;1.00;;;;;;9824359;30;20302;-84
2023/12/23 23:53:13;;;;;;;2.73;1.07;;;-0.30;1.00;;;;;;9823066;30;20229;-80
2023/12/23 23:58:36;;;;;;;1.73;1.23;;;-0.30;1.00;;;;;;9811041;30;20209;-80
